Terminal Aerodrome Forecast
Issued by NWS Sterling, VA

Current Version | Previous Version | Graphics & Text | Print | Product List | Glossary On
Versions: 1 2 3 4 5 6 7 8 9 10 11 12 13 14 15 16 17 18 19 20 21 22 23 24 25 26 27 28 29
000
FTUS41 KLWX 241100
TAFDCA
TAF
KDCA 241137Z 2412/2512 00000KT 3SM -RA BR OVC006 WS020/17030KT
     FM241400 12005KT 5SM -RA BR OVC008 WS020/19035KT
     FM241700 16007KT 1SM RA OVC008 WS020/19040KT
     FM242200 18013KT 3SM -SHRA OVC015
     FM250600 24014KT 4SM SHRA OVC015
     FM250800 27013KT P6SM OVC015
     FM251100 28011KT P6SM SCT150=

USA.gov is the U.S. government's official web portal to all federal, state and local government web resources and services.